Flight Track Log - Related Links

Times and Time Zones

All times are in EDT time to prevent confusion due to time zone crossing. See the EJA829P flight status page for this flight to view local times or setup timezone preferences in your user account.

Time Position Orientation Groundspeed Altitude Reporting Facility
EDT Latitude Longitude Course Direction KTS MPH feet Rate Location/Type
Mon 12:16:02 PM 40.9333 -72.3167 304° West 189 217 2,100  Level New York TRACON
Mon 12:17:02 PM 40.9667 -72.3833 304° West 210 242 3,900 950 Climbing New York TRACON
Mon 12:18:02 PM 41.0000 -72.4500 304° West 244 281 4,000 48 Climbing New York TRACON
Mon 12:19:08 PM 41.0500 -72.5333 309° West 245 282 4,000  Level New York TRACON
Mon 12:20:08 PM 41.1000 -72.6000 315° West 246 283 4,000  Level New York TRACON
Mon 12:21:08 PM 41.1333 -72.6667 304° West 245 282 4,000  Level New York TRACON
Mon 12:22:08 PM 41.1833 -72.7500 309° West 243 280 4,000 450 Level New York TRACON
Mon 12:23:08 PM 41.2167 -72.8167 304° West 255 293 4,900 684 Climbing New York TRACON
Mon 12:24:02 PM 41.2500 -72.8833 304° West 253 291 5,300 579 Climbing New York TRACON
Mon 12:25:02 PM 41.2667 -72.9667 285° West 247 284 6,000 350 Climbing New York TRACON
Mon 12:26:02 PM 41.2667 -73.0667 270° West 244 281 6,000  Level New York TRACON
Mon 12:27:02 PM 41.2667 -73.1500 270° West 244 281 6,000  Level New York TRACON
Mon 12:28:02 PM 41.2667 -73.2500 270° West 244 281 6,000 -300 Level New York TRACON
Mon 12:29:02 PM 41.2667 -73.3333 270° West 246 283 5,400 -1,000 Descending New York TRACON
Mon 12:30:02 PM 41.2833 -73.4167 285° West 245 282 4,000 -700 Descending New York TRACON
Mon 12:31:02 PM 41.2833 -73.5167 270° West 229 264 4,000  Level New York TRACON
Mon 12:32:02 PM 41.2833 -73.6000 270° West 248 285 4,000  Level New York TRACON
Mon 12:33:02 PM 41.2667 -73.6833 255° West 254 292 4,000  Level New York TRACON
Mon 12:34:02 PM 41.2667 -73.7833 270° West 242 278 4,000  Level New York TRACON
Mon 12:35:02 PM 41.2500 -73.8667 255° West 238 274 4,000  Level New York TRACON
Mon 12:36:02 PM 41.2500 -73.9500 270° West 236 272 4,000  Level New York TRACON
Mon 12:37:02 PM 41.2333 -74.0500 258° West 243 280 4,000  Level New York TRACON
Mon 12:38:02 PM 41.2333 -74.1333 270° West 237 273 4,000  Level New York TRACON
Mon 12:39:02 PM 41.2167 -74.2167 255° West 248 285 4,000  Level New York TRACON
Mon 12:40:02 PM 41.2000 -74.3000 255° West 259 298 4,000 -500 Level New York TRACON
Mon 12:41:02 PM 41.1333 -74.3167 191° South 244 281 3,000 -500 Descending New York TRACON
Mon 12:42:02 PM 41.0833 -74.3000 166° South 222 255 3,000  Level New York TRACON
Mon 12:43:02 PM 41.0167 -74.2667 159° South 225 259 3,000 -500 Level New York TRACON
Mon 12:44:02 PM 40.9667 -74.2667 180° South 199 229 2,000 -500 Descending New York TRACON
Mon 12:45:02 PM 40.9167 -74.3000 207° Southwest 188 216 2,000 -150 Level New York TRACON
Mon 12:46:02 PM 40.8667 -74.3500 217° Southwest 184 212 1,700 -500 Descending New York TRACON
Mon 12:47:02 PM 40.8333 -74.3833 217° Southwest 136 157 1,000 -700 Descending New York TRACON
Mon 12:49:00 PM 40.7993 -74.4149 163° South  Level Estimated

Login

Don't have an account? Register now (free) for customized features, flight alerts, and more!